createdAt,value
2022-08-14T00:01:50.300Z,1.33
2022-08-14T00:04:34.205Z,1.50
2022-08-14T00:07:03.669Z,1.55
2022-08-14T00:09:32.874Z,1.58
2022-08-14T00:12:01.353Z,1.48
2022-08-14T00:14:31.067Z,1.40
2022-08-14T00:16:58.821Z,1.10
2022-08-14T00:19:28.817Z,1.40
2022-08-14T00:21:56.366Z,1.58
2022-08-14T00:24:29.044Z,1.42
2022-08-14T00:27:02.332Z,1.60
2022-08-14T00:29:39.962Z,1.50
2022-08-14T00:32:52.938Z,1.30
2022-08-14T00:34:57.325Z,1.30
2022-08-14T00:37:24.748Z,1.30
2022-08-14T00:39:51.989Z,1.17
2022-08-14T00:42:54.852Z,1.30
2022-08-14T00:45:13.820Z,1.02
2022-08-14T00:47:45.179Z,1.45
2022-08-14T00:50:17.574Z,1.40
2022-08-14T00:52:52.473Z,1.67
2022-08-14T00:55:21.228Z,1.40
2022-08-14T00:58:10.615Z,1.58
2022-08-14T01:00:47.189Z,1.35
2022-08-14T01:03:20.284Z,1.42
2022-08-14T01:05:52.298Z,1.33
2022-08-14T01:08:51.196Z,1.48
2022-08-14T01:11:19.206Z,1.27
2022-08-14T01:13:55.638Z,1.40
2022-08-14T01:16:31.292Z,1.20
2022-08-14T01:19:20.051Z,1.58
2022-08-14T01:21:53.370Z,1.50
2022-08-14T01:24:23.007Z,1.13
2022-08-14T01:27:00.677Z,1.70
2022-08-14T01:32:23.091Z,1.25
2022-08-14T01:35:17.791Z,1.40
2022-08-14T01:37:56.577Z,1.58
2022-08-14T01:40:36.224Z,1.23
2022-08-14T01:43:14.854Z,1.20
2022-08-14T01:45:48.758Z,1.45
2022-08-14T01:48:20.785Z,1.55
2022-08-14T01:50:48.258Z,1.60
2022-08-14T01:53:17.916Z,1.30
2022-08-14T01:55:45.157Z,1.17
2022-08-14T01:58:19.644Z,1.55
2022-08-14T02:00:55.095Z,1.00
2022-08-14T02:03:31.586Z,1.30
2022-08-14T02:06:03.849Z,1.40
2022-08-14T02:08:53.219Z,1.50
2022-08-14T02:11:24.212Z,1.10
2022-08-14T02:14:07.198Z,0.95
2022-08-14T02:16:43.956Z,1.02
2022-08-14T02:19:17.235Z,1.30
2022-08-14T02:21:48.857Z,1.27
2022-08-14T02:24:39.522Z,1.40
2022-08-14T02:28:23.644Z,1.30
2022-08-14T02:30:00.669Z,1.45
2022-08-14T02:32:36.445Z,1.35
2022-08-14T02:35:16.731Z,1.50
2022-08-14T02:37:49.818Z,1.20
2022-08-14T02:40:32.585Z,1.10
2022-08-14T02:43:02.596Z,1.20
2022-08-14T02:45:38.285Z,1.33
2022-08-14T02:49:03.319Z,1.27
2022-08-14T02:51:02.765Z,1.30
2022-08-14T02:53:31.449Z,1.30
2022-08-14T02:56:02.967Z,1.10
2022-08-14T02:58:33.528Z,1.30
2022-08-14T03:01:01.216Z,1.20
2022-08-14T03:03:31.705Z,1.45
2022-08-14T03:06:06.839Z,1.35
2022-08-14T03:08:38.029Z,1.17
2022-08-14T03:11:09.482Z,1.10
2022-08-14T03:13:39.723Z,1.40
2022-08-14T03:16:20.176Z,1.17
2022-08-14T03:19:00.363Z,1.55
2022-08-14T03:21:30.272Z,1.00
2022-08-14T03:26:50.089Z,1.30
2022-08-14T03:29:26.386Z,1.55
2022-08-14T03:31:54.652Z,1.30
2022-08-14T03:34:24.589Z,1.25
2022-08-14T03:37:39.283Z,1.05
2022-08-14T03:40:00.414Z,1.27
2022-08-14T03:42:35.070Z,1.35
2022-08-14T03:45:27.169Z,1.02
2022-08-14T03:48:30.257Z,1.10
2022-08-14T03:50:59.857Z,1.65
2022-08-14T03:53:31.430Z,1.40
2022-08-14T03:56:02.410Z,1.20
2022-08-14T03:58:36.237Z,1.13
2022-08-14T04:01:06.317Z,1.20
2022-08-14T04:03:37.439Z,1.10
2022-08-14T04:06:05.969Z,1.10
2022-08-14T04:08:39.259Z,1.20
2022-08-14T04:11:11.032Z,1.50
2022-08-14T04:13:41.075Z,1.25
2022-08-14T04:18:43.142Z,1.10
2022-08-14T04:21:12.318Z,1.05
2022-08-14T04:23:40.335Z,1.23
2022-08-14T04:26:14.523Z,1.30
2022-08-14T04:29:07.107Z,1.10
2022-08-14T04:33:00.794Z,1.00
2022-08-14T04:34:28.432Z,1.20
2022-08-14T04:37:22.007Z,1.30
2022-08-14T04:40:11.688Z,1.10
2022-08-14T04:42:59.425Z,1.25
2022-08-14T04:45:40.820Z,1.75
2022-08-14T04:48:39.631Z,1.40
2022-08-14T04:51:06.329Z,1.35
2022-08-14T04:56:31.645Z,1.10
2022-08-14T04:59:10.474Z,1.10
2022-08-14T05:01:40.568Z,1.25
2022-08-14T05:04:08.832Z,1.55
2022-08-14T05:06:43.347Z,1.60
2022-08-14T05:09:13.967Z,1.48
2022-08-14T05:11:44.076Z,1.73
2022-08-14T05:14:34.228Z,1.90
2022-08-14T05:17:01.871Z,2.17
2022-08-14T05:19:32.058Z,2.05
2022-08-14T05:22:16.951Z,2.10
2022-08-14T05:24:48.545Z,2.50
2022-08-14T05:27:23.141Z,2.58
2022-08-14T05:29:53.676Z,3.20
2022-08-14T05:32:23.399Z,2.40
2022-08-14T05:34:57.716Z,2.70
2022-08-14T05:37:24.960Z,2.42
2022-08-14T05:39:54.519Z,2.70
2022-08-14T05:42:28.976Z,2.95
2022-08-14T05:44:56.833Z,3.30
2022-08-14T05:47:24.531Z,3.08
2022-08-14T05:49:58.541Z,3.40
2022-08-14T05:52:38.766Z,3.13
2022-08-14T05:55:11.751Z,3.53
2022-08-14T05:57:57.765Z,3.70
2022-08-14T06:00:30.844Z,3.70
2022-08-14T06:03:06.993Z,4.05
2022-08-14T06:05:35.139Z,4.13
2022-08-14T06:08:08.448Z,3.90
2022-08-14T06:10:49.746Z,4.05
2022-08-14T06:13:18.735Z,3.72
2022-08-14T06:15:47.210Z,3.90
2022-08-14T06:18:17.475Z,4.10
2022-08-14T06:20:45.030Z,3.85
2022-08-14T06:23:13.552Z,4.07
2022-08-14T06:25:42.386Z,4.10
2022-08-14T06:28:27.269Z,4.32
2022-08-14T06:30:55.917Z,4.72
2022-08-14T06:33:23.367Z,4.30
2022-08-14T06:36:10.589Z,4.22
2022-08-14T06:38:38.625Z,4.78
2022-08-14T06:41:05.877Z,5.03
2022-08-14T06:43:38.080Z,4.60
2022-08-14T06:46:17.455Z,4.40
2022-08-14T06:49:00.119Z,5.00
2022-08-14T06:51:38.933Z,5.07
2022-08-14T06:54:12.912Z,5.18
2022-08-14T06:56:44.257Z,5.32
2022-08-14T06:59:15.969Z,4.38
2022-08-14T07:02:07.155Z,5.00
2022-08-14T07:05:00.862Z,5.38
2022-08-14T07:07:39.190Z,5.30
2022-08-14T07:10:08.383Z,5.30
2022-08-14T07:12:54.566Z,4.68
2022-08-14T07:15:29.922Z,5.20
2022-08-14T07:18:00.376Z,4.68
2022-08-14T07:20:30.876Z,5.22
2022-08-14T07:23:08.671Z,5.07
2022-08-14T07:25:39.615Z,5.25
2022-08-14T07:28:12.734Z,5.93
2022-08-14T07:30:41.844Z,5.20
2022-08-14T07:33:18.382Z,5.13
2022-08-14T07:35:57.627Z,5.95
2022-08-14T07:38:34.094Z,5.47
2022-08-14T07:41:11.765Z,5.20
2022-08-14T07:43:42.625Z,5.78
2022-08-14T07:46:11.295Z,5.32
2022-08-14T07:48:43.845Z,5.45
2022-08-14T07:51:11.511Z,5.30
2022-08-14T07:53:41.072Z,5.95
2022-08-14T07:56:22.072Z,6.00
2022-08-14T07:58:58.867Z,4.90
2022-08-14T08:01:28.007Z,5.57
2022-08-14T08:04:00.199Z,5.95
2022-08-14T08:06:29.809Z,4.63
2022-08-14T08:09:02.845Z,6.00
2022-08-14T08:11:35.031Z,5.50
2022-08-14T08:14:17.101Z,5.40
2022-08-14T08:16:47.552Z,5.53
2022-08-14T08:19:19.520Z,6.00
2022-08-14T08:21:47.626Z,5.82
2022-08-14T08:24:19.982Z,5.90
2022-08-14T08:26:50.689Z,5.80
2022-08-14T08:29:28.937Z,5.95
2022-08-14T08:32:01.858Z,5.55
2022-08-14T08:34:46.192Z,5.70
2022-08-14T08:37:15.161Z,5.07
2022-08-14T08:40:02.990Z,5.55
2022-08-14T08:42:41.242Z,6.35
2022-08-14T08:45:17.433Z,5.10
2022-08-14T08:47:45.595Z,6.20
2022-08-14T08:50:31.473Z,6.45
2022-08-14T08:53:02.110Z,6.25
2022-08-14T08:55:33.955Z,6.18
2022-08-14T08:58:05.429Z,5.70
2022-08-14T09:00:43.048Z,5.35
2022-08-14T09:03:13.528Z,5.97
2022-08-14T09:05:54.522Z,6.05
2022-08-14T09:08:31.433Z,5.72
2022-08-14T09:11:18.980Z,5.25
2022-08-14T09:13:51.672Z,5.28
2022-08-14T09:16:24.898Z,5.80
2022-08-14T09:18:53.292Z,4.97
2022-08-14T09:21:23.996Z,6.07
2022-08-14T09:24:29.225Z,5.60
2022-08-14T09:26:44.371Z,4.82
2022-08-14T09:29:17.461Z,5.38
2022-08-14T09:31:52.725Z,5.85
2022-08-14T09:34:58.198Z,6.40
2022-08-14T09:38:02.302Z,5.75
2022-08-14T09:41:09.153Z,5.30
2022-08-14T09:44:07.062Z,6.30
2022-08-14T09:46:35.437Z,5.95
2022-08-14T09:49:16.481Z,6.25
2022-08-14T09:51:51.880Z,6.03
2022-08-14T09:54:41.151Z,5.38
2022-08-14T09:57:10.563Z,6.15
2022-08-14T09:59:50.541Z,5.53
2022-08-14T10:02:24.206Z,6.30
2022-08-14T10:05:08.701Z,5.28
2022-08-14T10:07:53.419Z,6.00
2022-08-14T10:10:35.515Z,6.32
2022-08-14T10:13:08.209Z,5.95
2022-08-14T10:15:46.742Z,5.28
2022-08-14T10:18:18.571Z,5.97
2022-08-14T10:20:57.889Z,5.63
2022-08-14T10:23:30.015Z,5.75
2022-08-14T10:26:07.061Z,5.30
2022-08-14T10:29:17.547Z,5.95
2022-08-14T10:31:44.988Z,6.43
2022-08-14T10:34:29.213Z,5.70
2022-08-14T10:37:14.072Z,6.47
2022-08-14T10:39:51.457Z,5.82
2022-08-14T10:42:40.879Z,5.50
2022-08-14T10:45:34.027Z,5.50
2022-08-14T10:48:34.545Z,6.28
2022-08-14T10:51:01.414Z,5.60
2022-08-14T10:53:35.288Z,6.10
2022-08-14T10:56:07.072Z,5.53
2022-08-14T10:58:49.374Z,6.15
2022-08-14T11:01:16.549Z,6.15
2022-08-14T11:03:56.116Z,5.88
2022-08-14T11:06:24.903Z,5.47
2022-08-14T11:08:55.357Z,5.95
2022-08-14T11:11:28.584Z,6.25
2022-08-14T11:14:09.583Z,5.00
2022-08-14T11:16:41.126Z,5.43
2022-08-14T11:19:24.328Z,5.38
2022-08-14T11:21:56.062Z,5.80
2022-08-14T11:24:54.630Z,5.65
2022-08-14T11:27:20.150Z,5.40
2022-08-14T11:29:52.745Z,6.03
2022-08-14T11:34:59.132Z,5.22
2022-08-14T11:37:36.961Z,5.75
2022-08-14T11:40:16.436Z,5.55
2022-08-14T11:42:59.420Z,5.88
2022-08-14T11:45:32.662Z,5.47
2022-08-14T11:49:04.168Z,5.47
2022-08-14T11:51:24.002Z,5.57
2022-08-14T11:54:01.173Z,5.70
2022-08-14T11:56:39.956Z,5.60
2022-08-14T11:59:10.889Z,5.60
2022-08-14T12:01:41.322Z,5.80
2022-08-14T12:04:21.566Z,5.45
2022-08-14T12:07:01.227Z,5.53
2022-08-14T12:09:36.990Z,5.97
2022-08-14T12:12:36.005Z,5.63
2022-08-14T12:15:07.031Z,5.80
2022-08-14T12:17:49.681Z,5.03
2022-08-14T12:20:29.676Z,5.13
2022-08-14T12:23:00.794Z,5.80
2022-08-14T12:25:29.046Z,6.20
2022-08-14T12:27:58.796Z,5.40
2022-08-14T12:30:39.682Z,5.22
2022-08-14T12:33:31.147Z,5.30
2022-08-14T12:36:05.424Z,5.25
2022-08-14T12:38:43.637Z,5.28
2022-08-14T12:41:21.231Z,5.90
2022-08-14T12:43:56.704Z,5.28
2022-08-14T12:46:40.802Z,5.57
2022-08-14T12:49:16.090Z,5.65
2022-08-14T12:51:44.917Z,5.82
2022-08-14T12:54:19.386Z,4.85
2022-08-14T12:57:08.466Z,5.78
2022-08-14T12:59:43.216Z,5.30
2022-08-14T13:02:26.028Z,5.40
2022-08-14T13:04:56.532Z,5.78
2022-08-14T13:07:32.511Z,5.47
2022-08-14T13:10:12.786Z,5.53
2022-08-14T13:13:12.590Z,5.13
2022-08-14T13:15:40.186Z,5.93
2022-08-14T13:18:10.645Z,4.57
2022-08-14T13:20:44.167Z,5.43
2022-08-14T13:23:19.406Z,5.70
2022-08-14T13:25:59.069Z,5.45
2022-08-14T13:28:34.000Z,5.60
2022-08-14T13:31:11.045Z,4.68
2022-08-14T13:33:40.683Z,5.80
2022-08-14T13:36:09.936Z,4.90
2022-08-14T13:38:39.027Z,5.38
2022-08-14T13:41:06.614Z,4.65
2022-08-14T13:43:36.952Z,5.38
2022-08-14T13:46:19.496Z,5.40
2022-08-14T13:48:47.557Z,4.75
2022-08-14T13:51:16.758Z,5.25
2022-08-14T13:54:08.444Z,5.60
2022-08-14T13:56:40.607Z,5.22
2022-08-14T13:59:08.973Z,5.10
2022-08-14T14:01:43.391Z,5.32
2022-08-14T14:04:18.121Z,4.18
2022-08-14T14:06:49.205Z,4.93
2022-08-14T14:09:21.665Z,5.00
2022-08-14T14:11:52.997Z,5.20
2022-08-14T14:14:44.489Z,5.40
2022-08-14T14:17:12.694Z,4.97
2022-08-14T14:19:46.615Z,5.28
2022-08-14T14:22:35.643Z,4.80
2022-08-14T14:25:03.405Z,5.03
2022-08-14T14:27:41.645Z,5.70
2022-08-14T14:30:52.313Z,5.38
2022-08-14T14:33:05.074Z,4.95
2022-08-14T14:35:34.850Z,5.38
2022-08-14T14:38:08.902Z,5.22
2022-08-14T14:40:52.590Z,4.93
2022-08-14T14:43:26.403Z,4.95
2022-08-14T14:45:55.776Z,4.97
2022-08-14T14:48:28.315Z,5.07
2022-08-14T14:50:58.617Z,5.18
2022-08-14T14:56:50.840Z,4.65
2022-08-14T14:58:43.438Z,5.45
2022-08-14T15:03:54.326Z,5.53
2022-08-14T15:06:22.882Z,4.85
2022-08-14T15:09:00.005Z,5.03
2022-08-14T15:11:30.484Z,4.78
2022-08-14T15:14:00.134Z,5.07
2022-08-14T15:16:28.410Z,4.95
2022-08-14T15:18:55.564Z,5.63
2022-08-14T15:21:23.372Z,4.93
2022-08-14T15:23:52.248Z,4.75
2022-08-14T15:26:23.308Z,5.22
2022-08-14T15:29:03.344Z,5.28
2022-08-14T15:31:35.002Z,5.05
2022-08-14T15:34:42.988Z,4.88
2022-08-14T15:37:06.763Z,4.82
2022-08-14T15:39:41.532Z,4.97
2022-08-14T15:42:16.069Z,5.00
2022-08-14T15:44:56.939Z,4.82
2022-08-14T15:47:28.194Z,5.20
2022-08-14T15:49:59.607Z,4.28
2022-08-14T15:52:32.712Z,4.80
2022-08-14T15:55:07.659Z,4.88
2022-08-14T15:57:35.884Z,4.50
2022-08-14T16:00:40.439Z,4.57
2022-08-14T16:03:14.188Z,4.22
2022-08-14T16:05:43.585Z,4.38
2022-08-14T16:08:24.317Z,4.82
2022-08-14T16:10:56.330Z,4.63
2022-08-14T16:13:41.154Z,4.30
2022-08-14T16:16:34.473Z,4.35
2022-08-14T16:19:07.228Z,4.63
2022-08-14T16:21:39.984Z,4.38
2022-08-14T16:24:26.854Z,4.15
2022-08-14T16:27:00.577Z,4.32
2022-08-14T16:29:30.244Z,3.95
2022-08-14T16:32:35.536Z,3.77
2022-08-14T16:34:54.848Z,4.63
2022-08-14T16:37:30.940Z,4.70
2022-08-14T16:40:02.320Z,4.13
2022-08-14T16:43:02.399Z,4.07
2022-08-14T16:45:27.308Z,4.25
2022-08-14T16:47:55.240Z,4.05
2022-08-14T16:50:40.715Z,4.10
2022-08-14T16:53:10.464Z,4.85
2022-08-14T16:55:53.734Z,4.35
2022-08-14T16:58:29.652Z,4.30
2022-08-14T17:01:25.009Z,4.40
2022-08-14T17:04:03.368Z,3.92
2022-08-14T17:06:50.749Z,3.50
2022-08-14T17:09:54.715Z,3.90
2022-08-14T17:12:33.482Z,4.20
2022-08-14T17:17:49.886Z,4.10
2022-08-14T17:20:53.947Z,4.45
2022-08-14T17:23:12.431Z,3.65
2022-08-14T17:28:50.542Z,3.70
2022-08-14T17:31:16.756Z,3.67
2022-08-14T17:33:52.469Z,3.70
2022-08-14T17:36:24.177Z,3.55
2022-08-14T17:39:13.602Z,3.95
2022-08-14T17:42:02.011Z,3.55
2022-08-14T17:44:45.491Z,3.38
2022-08-14T17:47:17.875Z,4.22
2022-08-14T17:49:51.884Z,3.80
2022-08-14T17:52:34.580Z,4.00
2022-08-14T17:56:00.839Z,3.67
2022-08-14T17:58:01.443Z,3.58
2022-08-14T18:00:50.296Z,3.83
2022-08-14T18:03:50.036Z,3.67
2022-08-14T18:06:07.730Z,3.58
2022-08-14T18:08:56.598Z,3.70
2022-08-14T18:11:24.135Z,3.35
2022-08-14T18:13:52.658Z,3.70
2022-08-14T18:16:22.483Z,3.33
2022-08-14T18:18:51.588Z,3.30
2022-08-14T18:21:40.616Z,3.33
2022-08-14T18:24:28.209Z,3.47
2022-08-14T18:27:12.215Z,3.70
2022-08-14T18:29:55.512Z,3.95
2022-08-14T18:32:47.093Z,4.40
2022-08-14T18:35:21.061Z,3.28
2022-08-14T18:37:56.059Z,3.88
2022-08-14T18:40:34.751Z,3.90
2022-08-14T18:43:05.342Z,3.33
2022-08-14T18:45:41.473Z,3.30
2022-08-14T18:48:33.566Z,3.45
2022-08-14T18:51:46.171Z,3.67
2022-08-14T18:54:33.062Z,3.53
2022-08-14T18:57:04.020Z,3.85
2022-08-14T18:59:36.212Z,3.65
2022-08-14T19:02:43.512Z,3.00
2022-08-14T19:05:11.585Z,3.25
2022-08-14T19:07:39.699Z,3.55
2022-08-14T19:10:17.050Z,3.72
2022-08-14T19:13:01.460Z,3.00
2022-08-14T19:15:35.149Z,3.70
2022-08-14T19:18:28.458Z,3.40
2022-08-14T19:21:13.574Z,3.50
2022-08-14T19:23:44.077Z,3.15
2022-08-14T19:26:35.933Z,3.58
2022-08-14T19:29:26.643Z,3.53
2022-08-14T19:32:26.663Z,3.70
2022-08-14T19:34:55.167Z,3.50
2022-08-14T19:37:52.079Z,2.92
2022-08-14T19:40:40.179Z,3.88
2022-08-14T19:43:22.746Z,3.30
2022-08-14T19:46:39.420Z,3.25
2022-08-14T19:48:57.929Z,3.70
2022-08-14T19:51:25.883Z,3.33
2022-08-14T19:54:13.261Z,3.05
2022-08-14T19:56:45.068Z,2.85
2022-08-14T19:59:18.276Z,3.33
2022-08-14T20:01:49.987Z,3.33
2022-08-14T20:04:45.713Z,3.15
2022-08-14T20:07:59.433Z,3.70
2022-08-14T20:11:03.335Z,3.28
2022-08-14T20:13:32.783Z,3.42
2022-08-14T20:16:21.001Z,3.20
2022-08-14T20:18:49.341Z,3.50
2022-08-14T20:21:18.613Z,3.78
2022-08-14T20:23:48.164Z,3.53
2022-08-14T20:26:30.681Z,3.80
2022-08-14T20:29:05.208Z,3.33
2022-08-14T20:31:37.032Z,3.22
2022-08-14T20:34:24.836Z,3.15
2022-08-14T20:37:14.233Z,3.22
2022-08-14T20:39:45.277Z,3.38
2022-08-14T20:42:43.394Z,3.53
2022-08-14T20:45:23.888Z,3.10
2022-08-14T20:48:07.351Z,3.15
2022-08-14T20:50:36.954Z,3.25
2022-08-14T20:53:28.736Z,3.25
2022-08-14T20:56:04.688Z,3.03
2022-08-14T20:58:48.310Z,2.97
2022-08-14T21:01:34.794Z,2.97
2022-08-14T21:04:04.994Z,3.28
2022-08-14T21:07:22.993Z,3.50
2022-08-14T21:10:03.138Z,3.30
2022-08-14T21:12:33.367Z,3.10
2022-08-14T21:15:10.152Z,2.85
2022-08-14T21:17:39.809Z,3.65
2022-08-14T21:20:25.610Z,3.58
2022-08-14T21:22:56.561Z,3.45
2022-08-14T21:25:31.571Z,2.97
2022-08-14T21:28:03.209Z,3.00
2022-08-14T21:30:46.817Z,3.00
2022-08-14T21:33:21.481Z,3.13
2022-08-14T21:38:33.490Z,3.30
2022-08-14T21:41:43.408Z,3.10
2022-08-14T21:44:17.618Z,2.85
2022-08-14T21:46:54.243Z,3.10
2022-08-14T21:49:38.959Z,3.10
2022-08-14T21:52:49.073Z,3.20
2022-08-14T21:55:10.177Z,2.70
2022-08-14T21:57:56.674Z,3.33
2022-08-14T22:00:35.151Z,2.90
2022-08-14T22:03:09.277Z,3.20
2022-08-14T22:05:38.861Z,2.83
2022-08-14T22:08:06.787Z,2.60
2022-08-14T22:10:35.892Z,2.92
2022-08-14T22:13:05.319Z,2.75
2022-08-14T22:15:33.084Z,3.15
2022-08-14T22:18:00.431Z,2.95
2022-08-14T22:20:30.128Z,2.90
2022-08-14T22:23:00.582Z,2.90
2022-08-14T22:25:34.065Z,2.80
2022-08-14T22:28:04.509Z,2.78
2022-08-14T22:30:32.158Z,2.75
2022-08-14T22:33:00.265Z,2.90
2022-08-14T22:35:28.463Z,3.20
2022-08-14T22:38:01.804Z,3.00
2022-08-14T22:41:08.927Z,2.97
2022-08-14T22:43:34.961Z,2.63
2022-08-14T22:46:06.333Z,3.05
2022-08-14T22:48:45.440Z,2.60
2022-08-14T22:51:17.834Z,2.95
2022-08-14T22:53:48.519Z,2.83
2022-08-14T22:56:20.110Z,2.95
2022-08-14T22:58:50.100Z,2.70
2022-08-14T23:01:56.847Z,3.03
2022-08-14T23:04:35.930Z,2.70
2022-08-14T23:07:22.189Z,2.92
2022-08-14T23:09:57.838Z,2.72
2022-08-14T23:12:54.569Z,2.53
2022-08-14T23:15:23.951Z,2.60
2022-08-14T23:17:51.586Z,2.67
2022-08-14T23:20:22.337Z,2.58
2022-08-14T23:22:52.633Z,2.53
2022-08-14T23:28:35.043Z,2.63
2022-08-14T23:30:58.569Z,2.55
2022-08-14T23:33:28.261Z,2.65
2022-08-14T23:35:59.632Z,3.03
2022-08-14T23:38:30.979Z,2.70
2022-08-14T23:41:00.779Z,2.30
2022-08-14T23:43:30.930Z,2.83
2022-08-14T23:45:58.958Z,2.83
2022-08-14T23:48:28.428Z,2.75
2022-08-14T23:50:56.721Z,2.75
2022-08-14T23:53:47.311Z,2.83
2022-08-14T23:56:30.222Z,2.67
2022-08-14T23:59:01.300Z,2.90
